Flight Track Log - Related Links

Times and Time Zones

All times are in EDT time to prevent confusion due to time zone crossing. See the FLG3735 flight status page for this flight to view local times or setup timezone preferences in your user account.

Time Position Orientation Groundspeed Altitude Reporting Facility
EDT Latitude Longitude Course Direction KTS MPH feet Rate Location/Type
Thu 10:55:18 PM 42.2017 -83.3553 56° Northeast 149 171 1,300  Level Cleveland Center
Thu 10:56:01 PM 42.1703 -83.3539 178° South 189 217 2,100 1,608 Climbing Cleveland Center
Thu 10:56:55 PM 42.1164 -83.3489 176° South 228 262 3,900 1,630 Climbing Cleveland Center
Thu 10:57:33 PM 42.0831 -83.3447 175° South 237 273 4,600 1,837 Climbing Cleveland Center
Thu 10:58:00 PM 42.3149 -82.7589 75° East  Level FlightAware Approximate
Thu 10:58:33 PM 42.0286 -83.2694 134° Southeast 302 348 6,900  Level Cleveland Center
Thu 10:59:00 PM 42.3309 -82.6075 82° East  Level FlightAware Approximate
Thu 10:59:33 PM 42.0658 -83.1872 59° Northeast 308 354 8,900  Level Cleveland Center
Thu 11:00:00 PM 42.3604 -82.4626 56° Northeast  Level FlightAware Approximate
Thu 11:00:33 PM 42.1078 -83.0908 60° Northeast 314 361 10,800  Level Cleveland Center
Thu 11:01:33 PM 42.1558 -82.9781 60° Northeast 320 368 11,900 1,300 Climbing Cleveland Center
Thu 11:02:33 PM 42.2022 -82.8564 63° Northeast 339 390 13,400 1,550 Climbing Cleveland Center
Thu 11:03:33 PM 42.2525 -82.7347 61° Northeast 352 405 15,000 1,600 Climbing Cleveland Center
Thu 11:04:33 PM 42.2922 -82.6042 68° East 363 418 16,600 1,450 Climbing Cleveland Center
Thu 11:05:33 PM 42.3031 -82.4586 84° East 371 427 17,900 1,350 Climbing Cleveland Center
Thu 11:06:33 PM 42.3181 -82.3100 82° East 383 441 19,300 1,200 Climbing Cleveland Center
Thu 11:07:33 PM 42.3286 -82.1589 85° East 394 453 20,300 1,050 Climbing Cleveland Center
Thu 11:08:33 PM 42.3453 -81.9878 82° East 409 471 21,400 1,050 Climbing Cleveland Center
Thu 11:09:33 PM 42.3597 -81.8308 83° East 415 478 22,400 950 Climbing Cleveland Center
Thu 11:10:33 PM 42.3717 -81.6736 84° East 415 478 23,300 750 Climbing Cleveland Center
Thu 11:11:33 PM 42.3856 -81.5136 83° East 420 483 23,900 550 Climbing Cleveland Center
Thu 11:12:33 PM 42.3992 -81.3536 83° East 426 490 24,400 500 Climbing Cleveland Center
Thu 11:13:33 PM 42.4106 -81.1906 85° East 426 490 24,900 300 Climbing Cleveland Center
Thu 11:14:33 PM 42.4239 -81.0247 84° East 433 498 25,000 50 Climbing Cleveland Center
Thu 11:15:33 PM 42.4347 -80.8700 85° East 447 514 25,000  Level Cleveland Center
Thu 11:16:33 PM 42.4478 -80.6986 84° East 454 522 25,000  Level Cleveland Center
Thu 11:17:33 PM 42.4622 -80.5269 83° East 462 532 25,000  Level Cleveland Center
Thu 11:18:33 PM 42.4744 -80.3467 85° East 462 532 25,000  Level Cleveland Center
Thu 11:19:33 PM 42.4867 -80.1750 84° East 462 532 25,000  Level Cleveland Center
Thu 11:20:33 PM 42.5003 -79.9833 84° East 462 532 25,000  Level Cleveland Center
Thu 11:21:33 PM 42.5139 -79.8086 84° East 462 532 25,000  Level Cleveland Center
Thu 11:22:33 PM 42.5250 -79.6367 85° East 462 532 25,000  Level Cleveland Center
Thu 11:23:33 PM 42.5381 -79.4589 84° East 462 532 25,000  Level Cleveland Center
Thu 11:24:33 PM 42.5467 -79.2839 86° East 462 532 25,000  Level Cleveland Center
Thu 11:25:33 PM 42.5569 -79.1061 85° East 462 532 25,000  Level Cleveland Center
Thu 11:26:33 PM 42.5650 -78.9311 86° East 462 532 25,000 450 Level Cleveland Center
Thu 11:27:33 PM 42.5772 -78.7589 84° East 462 532 25,900 950 Climbing Cleveland Center
Thu 11:28:33 PM 42.5869 -78.5922 85° East 457 526 26,900 550 Climbing Cleveland Center
Thu 11:29:33 PM 42.5944 -78.4283 86° East 445 512 27,000 50 Climbing Cleveland Center
Thu 11:30:33 PM 42.6036 -78.2589 86° East 445 512 27,000  Level Cleveland Center
Thu 11:31:33 PM 42.6125 -78.0892 86° East 445 512 27,000  Level Cleveland Center
Thu 11:32:33 PM 42.6211 -77.9167 86° East 445 512 27,000  Level Cleveland Center
Thu 11:33:33 PM 42.6297 -77.7497 86° East 445 512 27,000  Level Cleveland Center
Thu 11:35:49 PM 42.6461 -77.3611 87° East 458 527 27,000  Level Boston Center
Thu 11:36:49 PM 42.6531 -77.1950 87° East 447 514 27,000  Level Boston Center
Thu 11:37:49 PM 42.6600 -77.0261 87° East 447 514 27,000  Level Boston Center
Thu 11:38:49 PM 42.6689 -76.8572 86° East 447 514 27,000  Level Boston Center
Thu 11:39:49 PM 42.6753 -76.6881 87° East 442 509 27,000  Level Boston Center
Thu 11:40:49 PM 42.6817 -76.5161 87° East 442 509 27,000  Level Boston Center
Thu 11:41:49 PM 42.6875 -76.3469 87° East 442 509 27,000 -700 Level Boston Center
Thu 11:42:49 PM 42.6947 -76.1978 86° East 442 509 25,600 -1,400 Descending Boston Center
Thu 11:43:49 PM 42.6983 -76.0197 88° East 442 509 24,200 -1,500 Descending Boston Center
Thu 11:44:49 PM 42.7056 -75.8533 87° East 447 514 22,600 -1,600 Descending Boston Center
Thu 11:45:49 PM 42.7106 -75.6842 88° East 447 514 21,000 -1,600 Descending Boston Center
Thu 11:46:49 PM 42.7153 -75.5175 88° East 441 507 19,400 -1,700 Descending Boston Center
Thu 11:47:49 PM 42.7194 -75.3567 88° East 435 501 17,600 -1,600 Descending Boston Center
Thu 11:48:49 PM 42.7233 -75.2042 88° East 419 482 16,200 -1,350 Descending Boston Center
Thu 11:49:49 PM 42.7247 -75.0544 89° East 404 465 14,900 -1,311 Descending Boston Center
Thu 11:50:48 PM 42.7283 -74.8906 88° East 393 452 13,600 -1,100 Descending Boston Center
Thu 11:51:49 PM 42.7308 -74.7636 88° East 382 440 12,700 -1,041 Descending Boston Center
Thu 11:52:49 PM 42.7336 -74.6281 88° East 337 388 11,500 -800 Descending Boston Center
Thu 11:53:49 PM 42.7503 -74.5211 78° East 313 360 11,100 -1,039 Descending Boston Center
Thu 11:54:56 PM 42.7817 -74.3947 71° East 273 314 9,300 -1,406 Descending Boston Center
Thu 11:55:57 PM 42.8042 -74.3022 72° East 263 303 8,100 -1,152 Descending Boston Center
Thu 11:57:01 PM 42.8286 -74.2011 72° East 264 304 6,900 -1,240 Descending Boston Center
Thu 11:57:58 PM 42.8528 -74.1167 69° East 261 300 5,600 -1,373 Descending Boston Center
Thu 11:58:59 PM 42.8750 -74.0239 72° East 248 285 4,200 -1,240 Descending Boston Center
Thu 11:59:59 PM 42.8969 -73.9364 71° East 242 278 3,100 -1,041 Descending Boston Center
Fri 12:01:00 AM 42.9000 -73.8572 87° East 203 234 2,100 -493 Descending Boston Center
Fri 12:02:13 AM 42.8697 -73.7942 123° Southeast 181 208 2,000 -82 Descending Boston Center

Login

Don't have an account? Register now (free) for customized features, flight alerts, and more!